createdAt,value
2018-08-07T00:02:24.726Z,20.70
2018-08-07T00:04:51.891Z,20.70
2018-08-07T00:07:19.206Z,20.70
2018-08-07T00:09:46.662Z,20.70
2018-08-07T00:12:14.020Z,20.70
2018-08-07T00:14:41.269Z,20.70
2018-08-07T00:17:08.619Z,20.70
2018-08-07T00:19:35.915Z,20.80
2018-08-07T00:22:03.226Z,20.80
2018-08-07T00:24:30.830Z,20.80
2018-08-07T00:26:58.157Z,20.80
2018-08-07T00:29:25.468Z,20.80
2018-08-07T00:31:52.769Z,20.80
2018-08-07T00:34:20.076Z,20.80
2018-08-07T00:36:47.399Z,20.80
2018-08-07T00:39:14.710Z,20.80
2018-08-07T00:41:42.017Z,20.80
2018-08-07T00:44:09.328Z,20.80
2018-08-07T00:46:36.683Z,20.80
2018-08-07T00:49:04.431Z,20.80
2018-08-07T00:51:31.801Z,20.70
2018-08-07T00:53:59.107Z,20.80
2018-08-07T00:56:26.392Z,20.80
2018-08-07T00:58:53.658Z,20.80
2018-08-07T01:01:20.980Z,20.80
2018-08-07T01:03:48.235Z,20.90
2018-08-07T01:06:15.476Z,20.80
2018-08-07T01:08:42.757Z,20.80
2018-08-07T01:11:09.978Z,20.80
2018-08-07T01:13:37.273Z,20.80
2018-08-07T01:16:04.927Z,20.70
2018-08-07T01:18:32.145Z,20.70
2018-08-07T01:20:59.389Z,20.70
2018-08-07T01:23:26.749Z,20.70
2018-08-07T01:25:53.958Z,20.70
2018-08-07T01:28:21.254Z,20.70
2018-08-07T01:30:48.698Z,20.70
2018-08-07T01:33:15.915Z,20.70
2018-08-07T01:35:42.634Z,20.70
2018-08-07T01:38:09.365Z,20.70
2018-08-07T01:40:36.082Z,20.70
2018-08-07T01:43:03.634Z,20.80
2018-08-07T01:45:30.373Z,20.70
2018-08-07T01:47:57.123Z,20.70
2018-08-07T01:50:23.880Z,20.70
2018-08-07T01:52:50.635Z,20.70
2018-08-07T01:55:18.159Z,20.70
2018-08-07T01:57:44.891Z,20.80
2018-08-07T02:00:12.148Z,20.70
2018-08-07T02:02:38.924Z,20.60
2018-08-07T02:05:06.788Z,20.60
2018-08-07T02:07:33.662Z,20.50
2018-08-07T02:10:00.433Z,20.50
2018-08-07T02:12:27.226Z,20.50
2018-08-07T02:14:54.063Z,20.50
2018-08-07T02:17:20.853Z,20.50
2018-08-07T02:19:47.749Z,20.50
2018-08-07T02:22:14.481Z,20.40
2018-08-07T02:24:41.241Z,20.40
2018-08-07T02:27:08.035Z,20.30
2018-08-07T02:29:34.712Z,20.20
2018-08-07T02:32:01.445Z,20.20
2018-08-07T02:34:28.227Z,20.10
2018-08-07T02:36:55.017Z,20.10
2018-08-07T02:39:21.761Z,20.10
2018-08-07T02:41:48.506Z,20.10
2018-08-07T02:44:15.332Z,20.00
2018-08-07T02:46:42.291Z,19.90
2018-08-07T02:49:09.114Z,19.90
2018-08-07T02:51:36.220Z,19.80
2018-08-07T02:54:02.951Z,19.80
2018-08-07T02:56:29.660Z,19.70
2018-08-07T02:58:56.401Z,19.60
2018-08-07T03:01:23.222Z,19.60
2018-08-07T03:03:49.936Z,19.60
2018-08-07T03:06:16.705Z,19.50
2018-08-07T03:08:43.547Z,19.50
2018-08-07T03:11:10.402Z,19.50
2018-08-07T03:13:37.145Z,19.50
2018-08-07T03:16:04.086Z,19.50
2018-08-07T03:18:30.826Z,19.50
2018-08-07T03:23:24.335Z,19.40
2018-08-07T03:25:51.071Z,19.40
2018-08-07T03:28:17.800Z,19.40
2018-08-07T03:30:44.731Z,19.40
2018-08-07T03:33:11.485Z,19.30
2018-08-07T03:35:38.236Z,19.30
2018-08-07T03:38:04.982Z,19.20
2018-08-07T03:40:31.735Z,19.20
2018-08-07T03:42:58.564Z,19.20
2018-08-07T03:45:25.356Z,19.20
2018-08-07T03:47:52.099Z,19.20
2018-08-07T03:50:18.962Z,19.20
2018-08-07T03:52:45.737Z,19.20
2018-08-07T03:55:13.813Z,19.10
2018-08-07T03:57:41.436Z,19.10
2018-08-07T04:00:11.792Z,19.10
2018-08-07T04:02:38.629Z,19.20
2018-08-07T04:07:32.107Z,19.20
2018-08-07T04:09:58.893Z,19.20
2018-08-07T04:12:25.629Z,19.20
2018-08-07T04:14:52.483Z,19.20
2018-08-07T04:17:19.257Z,19.30
2018-08-07T04:19:46.091Z,19.40
2018-08-07T04:22:13.059Z,19.40
2018-08-07T04:24:39.973Z,19.40
2018-08-07T04:27:06.741Z,19.40
2018-08-07T04:29:33.484Z,19.40
2018-08-07T04:32:00.185Z,19.40
2018-08-07T04:34:26.975Z,19.50
2018-08-07T04:36:53.777Z,19.50
2018-08-07T04:39:20.634Z,19.50
2018-08-07T04:41:47.362Z,19.50
2018-08-07T04:44:14.112Z,19.60
2018-08-07T04:46:40.868Z,19.50
2018-08-07T04:49:07.637Z,19.50
2018-08-07T04:51:34.919Z,19.60
2018-08-07T04:54:01.838Z,19.50
2018-08-07T04:56:28.585Z,19.60
2018-08-07T04:58:55.360Z,19.60
2018-08-07T05:01:22.100Z,19.70
2018-08-07T05:03:49.023Z,19.70
2018-08-07T05:06:15.867Z,19.80
2018-08-07T05:08:42.735Z,19.80
2018-08-07T05:11:09.527Z,19.80
2018-08-07T05:13:36.323Z,19.90
2018-08-07T05:16:03.150Z,19.90
2018-08-07T05:18:29.894Z,20.00
2018-08-07T05:20:56.943Z,20.10
2018-08-07T05:23:23.808Z,20.20
2018-08-07T05:25:50.667Z,20.20
2018-08-07T05:28:17.468Z,20.30
2018-08-07T05:30:44.348Z,20.30
2018-08-07T05:33:12.125Z,20.40
2018-08-07T05:35:38.885Z,20.40
2018-08-07T05:38:05.666Z,20.50
2018-08-07T05:40:32.444Z,20.50
2018-08-07T05:42:59.241Z,20.60
2018-08-07T05:45:26.034Z,20.60
2018-08-07T05:47:52.783Z,20.70
2018-08-07T05:50:19.807Z,20.70
2018-08-07T05:52:46.468Z,20.70
2018-08-07T05:55:13.366Z,20.80
2018-08-07T05:57:40.089Z,20.80
2018-08-07T06:00:10.974Z,20.90
2018-08-07T06:02:37.830Z,20.90
2018-08-07T06:05:05.699Z,21.00
2018-08-07T06:07:32.955Z,21.10
2018-08-07T06:10:00.557Z,21.20
2018-08-07T06:12:27.971Z,21.20
2018-08-07T06:14:55.261Z,21.20
2018-08-07T06:17:22.663Z,21.30
2018-08-07T06:19:49.474Z,21.40
2018-08-07T06:22:16.254Z,21.50
2018-08-07T06:24:43.038Z,21.50
2018-08-07T06:27:09.884Z,21.60
2018-08-07T06:29:37.718Z,21.70
2018-08-07T06:32:04.706Z,21.70
2018-08-07T06:34:31.539Z,21.80
2018-08-07T06:36:58.327Z,21.90
2018-08-07T06:39:25.074Z,21.90
2018-08-07T06:41:52.201Z,22.00
2018-08-07T06:44:19.068Z,22.10
2018-08-07T06:46:45.904Z,22.20
2018-08-07T06:49:12.666Z,22.20
2018-08-07T06:51:39.435Z,22.30
2018-08-07T06:54:06.725Z,22.40
2018-08-07T06:56:33.531Z,22.50
2018-08-07T06:59:00.243Z,22.50
2018-08-07T07:01:27.467Z,22.60
2018-08-07T07:03:54.884Z,22.70
2018-08-07T07:06:22.235Z,22.80
2018-08-07T07:08:49.508Z,22.80
2018-08-07T07:11:17.097Z,22.90
2018-08-07T07:13:44.416Z,22.90
2018-08-07T07:16:11.739Z,23.00
2018-08-07T07:18:39.076Z,23.10
2018-08-07T07:21:06.814Z,23.20
2018-08-07T07:23:34.252Z,23.30
2018-08-07T07:26:01.808Z,23.40
2018-08-07T07:28:29.627Z,23.50
2018-08-07T07:30:57.056Z,23.60
2018-08-07T07:33:24.491Z,23.70
2018-08-07T07:35:52.359Z,23.80
2018-08-07T07:38:20.044Z,23.80
2018-08-07T07:40:47.699Z,23.90
2018-08-07T07:43:15.055Z,24.00
2018-08-07T07:45:42.479Z,24.10
2018-08-07T07:48:09.899Z,24.20
2018-08-07T07:50:37.241Z,24.30
2018-08-07T07:53:04.673Z,24.40
2018-08-07T07:55:32.114Z,24.50
2018-08-07T07:57:59.670Z,24.60
2018-08-07T08:00:27.690Z,24.70
2018-08-07T08:02:55.138Z,24.80
2018-08-07T08:05:23.749Z,24.90
2018-08-07T08:07:51.341Z,25.00
2018-08-07T08:10:19.551Z,25.10
2018-08-07T08:12:47.065Z,25.20
2018-08-07T08:15:15.869Z,25.30
2018-08-07T08:17:44.497Z,25.30
2018-08-07T08:20:12.451Z,25.40
2018-08-07T08:22:39.323Z,25.50
2018-08-07T08:25:07.522Z,25.60
2018-08-07T08:27:34.633Z,25.70
2018-08-07T08:30:01.591Z,25.80
2018-08-07T08:32:28.376Z,25.90
2018-08-07T08:34:55.292Z,26.00
2018-08-07T08:37:22.286Z,26.10
2018-08-07T08:39:49.175Z,26.10
2018-08-07T08:42:16.079Z,26.20
2018-08-07T08:44:43.215Z,26.30
2018-08-07T08:47:10.118Z,26.50
2018-08-07T08:49:37.074Z,26.50
2018-08-07T08:52:05.072Z,26.60
2018-08-07T08:54:31.974Z,26.80
2018-08-07T08:56:58.849Z,26.90
2018-08-07T08:59:26.069Z,27.00
2018-08-07T09:01:52.915Z,27.00
2018-08-07T09:04:19.759Z,27.10
2018-08-07T09:06:46.804Z,27.20
2018-08-07T09:09:14.070Z,27.30
2018-08-07T09:11:41.203Z,27.40
2018-08-07T09:14:09.386Z,27.50
2018-08-07T09:16:36.598Z,27.60
2018-08-07T09:19:03.462Z,27.70
2018-08-07T09:21:30.418Z,27.80
2018-08-07T09:23:57.375Z,27.90
2018-08-07T09:26:24.241Z,27.90
2018-08-07T09:28:51.136Z,28.10
2018-08-07T09:31:18.067Z,28.30
2018-08-07T09:33:44.894Z,28.50
2018-08-07T09:36:12.082Z,28.60
2018-08-07T09:38:38.957Z,28.70
2018-08-07T09:41:05.826Z,28.70
2018-08-07T09:43:32.744Z,28.80
2018-08-07T09:45:59.552Z,28.90
2018-08-07T09:48:26.396Z,29.10
2018-08-07T09:50:53.361Z,29.30
2018-08-07T09:53:20.233Z,29.40
2018-08-07T09:55:47.128Z,29.50
2018-08-07T09:58:14.041Z,29.60
2018-08-07T10:00:46.691Z,29.70
2018-08-07T10:03:16.247Z,29.80
2018-08-07T10:05:43.086Z,30.00
2018-08-07T10:08:09.950Z,30.00
2018-08-07T10:10:36.869Z,30.20
2018-08-07T10:13:03.773Z,30.40
2018-08-07T10:15:30.636Z,30.50
2018-08-07T10:17:57.489Z,30.50
2018-08-07T10:20:24.462Z,30.50
2018-08-07T10:22:51.391Z,30.80
2018-08-07T10:27:46.671Z,31.10
2018-08-07T10:30:15.169Z,31.30
2018-08-07T10:32:42.206Z,31.40
2018-08-07T10:35:09.951Z,31.50
2018-08-07T10:37:37.079Z,31.60
2018-08-07T10:40:04.882Z,31.80
2018-08-07T10:42:31.864Z,31.80
2018-08-07T10:44:58.694Z,31.80
2018-08-07T10:47:25.548Z,32.00
2018-08-07T10:49:52.530Z,32.20
2018-08-07T10:52:19.404Z,32.40
2018-08-07T10:54:46.260Z,32.60
2018-08-07T10:59:39.967Z,32.80
2018-08-07T11:02:07.457Z,32.80
2018-08-07T11:04:34.880Z,32.80
2018-08-07T11:07:02.340Z,32.80
2018-08-07T11:09:29.757Z,33.20
2018-08-07T11:14:24.549Z,33.40
2018-08-07T11:16:52.341Z,33.50
2018-08-07T11:19:19.743Z,33.80
2018-08-07T11:21:47.156Z,34.40
2018-08-07T11:24:14.578Z,35.20
2018-08-07T11:26:42.115Z,36.10
2018-08-07T11:29:09.541Z,36.80
2018-08-07T11:31:37.007Z,36.30
2018-08-07T11:34:04.383Z,37.40
2018-08-07T11:36:32.014Z,37.60
2018-08-07T11:38:59.857Z,37.20
2018-08-07T11:41:27.313Z,37.50
2018-08-07T11:43:54.734Z,38.00
2018-08-07T11:46:22.294Z,38.00
2018-08-07T11:48:50.311Z,38.80
2018-08-07T11:51:17.804Z,38.80
2018-08-07T11:53:45.324Z,39.80
2018-08-07T11:56:12.755Z,39.70
2018-08-07T11:58:40.230Z,40.70
2018-08-07T12:01:07.639Z,40.80
2018-08-07T12:03:35.178Z,41.60
2018-08-07T12:06:02.647Z,41.90
2018-08-07T12:08:30.031Z,42.00
2018-08-07T12:10:57.463Z,41.40
2018-08-07T12:13:24.979Z,40.60
2018-08-07T12:15:51.934Z,41.50
2018-08-07T12:18:18.872Z,42.60
2018-08-07T12:20:45.858Z,43.20
2018-08-07T12:23:12.774Z,43.40
2018-08-07T12:25:40.344Z,43.90
2018-08-07T12:28:07.731Z,44.10
2018-08-07T12:30:35.295Z,45.00
2018-08-07T12:33:02.694Z,45.40
2018-08-07T12:35:30.302Z,45.40
2018-08-07T12:37:57.194Z,46.60
2018-08-07T12:40:25.226Z,46.30
2018-08-07T12:42:53.238Z,45.60
2018-08-07T12:45:20.110Z,44.70
2018-08-07T12:47:47.401Z,45.50
2018-08-07T12:50:15.198Z,46.40
2018-08-07T12:52:42.082Z,47.10
2018-08-07T12:55:10.044Z,47.70
2018-08-07T12:57:36.923Z,48.10
2018-08-07T13:00:05.731Z,47.30
2018-08-07T13:02:32.607Z,47.80
2018-08-07T13:04:59.731Z,48.30
2018-08-07T13:07:26.631Z,48.80
2018-08-07T13:09:53.702Z,48.10
2018-08-07T13:12:20.855Z,47.10
2018-08-07T13:14:47.695Z,48.10
2018-08-07T13:17:14.619Z,48.90
2018-08-07T13:19:41.422Z,49.10
2018-08-07T13:22:08.258Z,49.00
2018-08-07T13:24:35.103Z,49.30
2018-08-07T13:27:01.967Z,49.70
2018-08-07T13:29:29.438Z,49.90
2018-08-07T13:31:56.926Z,50.30
2018-08-07T13:34:24.300Z,46.40
2018-08-07T13:36:51.693Z,45.80
2018-08-07T13:39:19.143Z,47.40
2018-08-07T13:41:46.555Z,48.30
2018-08-07T13:44:13.939Z,47.10
2018-08-07T13:46:41.360Z,47.70
2018-08-07T13:49:08.913Z,48.30
2018-08-07T13:51:36.355Z,44.60
2018-08-07T13:54:03.874Z,46.60
2018-08-07T13:56:31.302Z,48.30
2018-08-07T13:58:58.707Z,47.00
2018-08-07T14:01:26.179Z,46.70
2018-08-07T14:03:53.632Z,46.20
2018-08-07T14:06:21.054Z,44.10
2018-08-07T14:08:48.613Z,43.40
2018-08-07T14:13:42.991Z,46.90
2018-08-07T14:16:09.829Z,48.00
2018-08-07T14:18:36.756Z,49.40
2018-08-07T14:21:03.664Z,48.20
2018-08-07T14:23:30.494Z,49.00
2018-08-07T14:25:57.359Z,48.80
2018-08-07T14:28:24.248Z,48.50
2018-08-07T14:30:51.134Z,50.20
2018-08-07T14:33:18.035Z,49.70
2018-08-07T14:35:44.966Z,49.00
2018-08-07T14:38:11.855Z,50.00
2018-08-07T14:40:39.406Z,50.00
2018-08-07T14:43:06.815Z,50.20
2018-08-07T14:45:34.245Z,50.10
2018-08-07T14:48:01.673Z,50.70
2018-08-07T14:50:29.669Z,50.30
2018-08-07T14:52:56.516Z,49.30
2018-08-07T14:55:24.244Z,49.80
2018-08-07T14:57:52.108Z,49.50
2018-08-07T15:00:21.588Z,48.70
2018-08-07T15:02:49.414Z,47.70
2018-08-07T15:05:16.867Z,47.60
2018-08-07T15:07:45.026Z,46.60
2018-08-07T15:10:15.486Z,46.50
2018-08-07T15:12:43.109Z,45.40
2018-08-07T15:15:14.511Z,46.00
2018-08-07T15:17:42.340Z,45.60
2018-08-07T15:20:10.273Z,44.20
2018-08-07T15:22:37.934Z,43.20
2018-08-07T15:25:07.754Z,43.40
2018-08-07T15:27:34.587Z,45.10
2018-08-07T15:30:01.455Z,45.80
2018-08-07T15:32:28.350Z,46.30
2018-08-07T15:34:55.232Z,46.80
2018-08-07T15:37:22.109Z,47.20
2018-08-07T15:39:49.054Z,47.20
2018-08-07T15:42:15.938Z,48.00
2018-08-07T15:44:42.793Z,48.60
2018-08-07T15:47:09.685Z,49.20
2018-08-07T15:49:36.529Z,49.00
2018-08-07T15:52:03.618Z,48.50
2018-08-07T15:54:31.080Z,48.10
2018-08-07T15:56:58.491Z,47.90
2018-08-07T15:59:25.905Z,47.80
2018-08-07T16:01:53.388Z,48.80
2018-08-07T16:04:20.803Z,48.80
2018-08-07T16:06:48.079Z,48.80
2018-08-07T16:09:14.864Z,47.60
2018-08-07T16:11:41.545Z,46.30
2018-08-07T16:14:08.275Z,45.30
2018-08-07T16:16:35.788Z,42.90
2018-08-07T16:19:03.005Z,43.80
2018-08-07T16:21:30.316Z,44.50
2018-08-07T16:23:57.787Z,43.80
2018-08-07T16:26:24.538Z,43.80
2018-08-07T16:28:52.011Z,43.00
2018-08-07T16:31:19.462Z,43.80
2018-08-07T16:33:46.701Z,44.40
2018-08-07T16:36:13.965Z,44.40
2018-08-07T16:38:40.714Z,45.40
2018-08-07T16:41:07.443Z,45.80
2018-08-07T16:43:34.720Z,46.50
2018-08-07T16:46:01.439Z,46.40
2018-08-07T16:48:28.280Z,45.80
2018-08-07T16:50:55.127Z,45.70
2018-08-07T16:53:21.996Z,45.20
2018-08-07T16:55:48.730Z,46.10
2018-08-07T16:58:15.643Z,46.50
2018-08-07T17:00:42.504Z,46.20
2018-08-07T17:03:09.266Z,46.40
2018-08-07T17:05:36.067Z,45.40
2018-08-07T17:08:03.376Z,45.50
2018-08-07T17:10:30.632Z,44.80
2018-08-07T17:12:57.886Z,45.40
2018-08-07T17:15:25.164Z,45.50
2018-08-07T17:17:51.927Z,45.30
2018-08-07T17:20:19.694Z,43.60
2018-08-07T17:22:46.727Z,43.80
2018-08-07T17:25:17.792Z,43.30
2018-08-07T17:27:45.306Z,42.30
2018-08-07T17:30:16.842Z,41.30
2018-08-07T17:32:43.995Z,40.40
2018-08-07T17:35:12.743Z,39.40
2018-08-07T17:37:39.487Z,38.70
2018-08-07T17:40:07.423Z,38.20
2018-08-07T17:42:34.232Z,37.60
2018-08-07T17:45:01.008Z,37.20
2018-08-07T17:47:27.742Z,36.70
2018-08-07T17:49:54.560Z,36.50
2018-08-07T17:52:21.952Z,36.10
2018-08-07T17:54:49.295Z,35.90
2018-08-07T17:57:16.574Z,35.40
2018-08-07T17:59:43.827Z,35.10
2018-08-07T18:02:11.158Z,35.00
2018-08-07T18:04:38.486Z,34.70
2018-08-07T18:07:05.737Z,34.40
2018-08-07T18:09:32.987Z,34.20
2018-08-07T18:12:00.267Z,34.00
2018-08-07T18:14:27.543Z,33.80
2018-08-07T18:16:54.967Z,33.60
2018-08-07T18:19:22.305Z,33.50
2018-08-07T18:21:49.686Z,33.40
2018-08-07T18:24:16.991Z,33.10
2018-08-07T18:26:44.396Z,33.10
2018-08-07T18:29:11.736Z,32.90
2018-08-07T18:31:39.058Z,32.80
2018-08-07T18:34:06.355Z,32.60
2018-08-07T18:36:33.647Z,32.50
2018-08-07T18:39:01.054Z,32.40
2018-08-07T18:41:28.287Z,32.20
2018-08-07T18:43:55.658Z,32.00
2018-08-07T18:46:23.016Z,31.80
2018-08-07T18:48:50.517Z,31.70
2018-08-07T18:51:17.888Z,31.50
2018-08-07T18:53:45.105Z,31.30
2018-08-07T18:56:12.455Z,31.20
2018-08-07T18:58:39.737Z,31.10
2018-08-07T19:01:07.265Z,30.90
2018-08-07T19:03:34.599Z,30.80
2018-08-07T19:06:01.883Z,30.70
2018-08-07T19:08:29.103Z,30.50
2018-08-07T19:10:56.443Z,30.40
2018-08-07T19:13:23.723Z,30.30
2018-08-07T19:15:51.323Z,30.10
2018-08-07T19:18:18.717Z,30.00
2018-08-07T19:20:46.037Z,29.80
2018-08-07T19:23:13.396Z,29.70
2018-08-07T19:25:40.900Z,29.60
2018-08-07T19:28:08.263Z,29.50
2018-08-07T19:30:35.731Z,29.40
2018-08-07T19:33:03.087Z,29.20
2018-08-07T19:35:30.413Z,29.10
2018-08-07T19:37:58.107Z,29.10
2018-08-07T19:40:25.409Z,28.90
2018-08-07T19:42:52.742Z,28.80
2018-08-07T19:45:20.350Z,28.80
2018-08-07T19:47:48.136Z,28.70
2018-08-07T19:50:18.123Z,28.60
2018-08-07T19:52:45.502Z,28.50
2018-08-07T19:55:14.817Z,28.50
2018-08-07T19:57:42.105Z,28.40
2018-08-07T20:00:12.857Z,28.30
2018-08-07T20:02:40.324Z,28.20
2018-08-07T20:05:07.622Z,28.10
2018-08-07T20:07:34.862Z,28.10
2018-08-07T20:10:02.422Z,28.00
2018-08-07T20:12:29.705Z,28.00
2018-08-07T20:14:56.993Z,27.90
2018-08-07T20:17:24.553Z,27.90
2018-08-07T20:19:51.851Z,27.90
2018-08-07T20:22:19.511Z,27.80
2018-08-07T20:24:47.148Z,27.70
2018-08-07T20:27:14.396Z,27.70
2018-08-07T20:29:41.656Z,27.60
2018-08-07T20:32:09.580Z,27.60
2018-08-07T20:34:36.964Z,27.50
2018-08-07T20:37:04.258Z,27.50
2018-08-07T20:39:32.067Z,27.40
2018-08-07T20:41:59.350Z,27.40
2018-08-07T20:44:26.646Z,27.50
2018-08-07T20:46:54.065Z,27.60
2018-08-07T20:49:21.313Z,27.70
2018-08-07T20:51:48.643Z,27.70
2018-08-07T20:54:16.003Z,27.80
2018-08-07T20:56:43.260Z,27.90
2018-08-07T20:59:10.497Z,28.00
2018-08-07T21:01:37.793Z,28.00
2018-08-07T21:04:05.143Z,27.90
2018-08-07T21:06:32.415Z,27.90
2018-08-07T21:08:59.745Z,28.00
2018-08-07T21:11:27.012Z,28.10
2018-08-07T21:13:54.315Z,28.20
2018-08-07T21:16:21.805Z,28.20
2018-08-07T21:18:48.959Z,28.10
2018-08-07T21:21:16.183Z,28.00
2018-08-07T21:23:43.453Z,27.90
2018-08-07T21:26:10.679Z,27.70
2018-08-07T21:28:37.944Z,27.70
2018-08-07T21:31:05.307Z,27.60
2018-08-07T21:33:32.553Z,27.40
2018-08-07T21:35:59.788Z,27.30
2018-08-07T21:38:27.049Z,27.30
2018-08-07T21:43:21.594Z,27.10
2018-08-07T21:45:48.987Z,27.00
2018-08-07T21:48:16.239Z,26.90
2018-08-07T21:50:43.471Z,26.80
2018-08-07T21:53:10.760Z,26.80
2018-08-07T21:55:38.013Z,26.80
2018-08-07T22:00:42.877Z,26.70
2018-08-07T22:03:10.328Z,26.70
2018-08-07T22:05:37.408Z,26.70
2018-08-07T22:08:04.170Z,26.70
2018-08-07T22:10:31.355Z,26.80
2018-08-07T22:12:58.572Z,26.80
2018-08-07T22:15:25.788Z,26.80
2018-08-07T22:17:53.057Z,26.80
2018-08-07T22:20:20.336Z,26.80
2018-08-07T22:22:47.620Z,26.80
2018-08-07T22:25:14.898Z,26.80
2018-08-07T22:27:42.163Z,26.80
2018-08-07T22:30:12.996Z,26.80
2018-08-07T22:32:40.252Z,26.80
2018-08-07T22:35:08.063Z,26.70
2018-08-07T22:37:35.421Z,26.60
2018-08-07T22:40:03.427Z,26.40
2018-08-07T22:42:30.647Z,26.30
2018-08-07T22:44:57.832Z,26.20
2018-08-07T22:47:25.152Z,26.10
2018-08-07T22:49:52.435Z,26.10
2018-08-07T22:52:19.772Z,26.00
2018-08-07T22:54:47.097Z,26.00
2018-08-07T22:57:14.352Z,25.90
2018-08-07T22:59:41.562Z,25.90
2018-08-07T23:02:08.808Z,25.90
2018-08-07T23:04:36.019Z,25.80
2018-08-07T23:07:03.295Z,25.70
2018-08-07T23:09:30.510Z,25.70
2018-08-07T23:11:57.775Z,25.70
2018-08-07T23:14:25.023Z,25.60
2018-08-07T23:16:52.327Z,25.60
2018-08-07T23:19:19.579Z,25.50
2018-08-07T23:21:47.073Z,25.50
2018-08-07T23:24:14.243Z,25.40
2018-08-07T23:26:41.506Z,25.30
2018-08-07T23:29:08.758Z,25.20
2018-08-07T23:34:03.291Z,25.10
2018-08-07T23:36:30.683Z,25.00
2018-08-07T23:38:58.179Z,25.00
2018-08-07T23:41:25.455Z,24.90
2018-08-07T23:43:52.762Z,24.90
2018-08-07T23:46:20.074Z,24.80
2018-08-07T23:48:47.303Z,24.80
2018-08-07T23:51:14.609Z,24.70
2018-08-07T23:53:41.861Z,24.70
2018-08-07T23:56:09.153Z,24.70
2018-08-07T23:58:36.390Z,24.80
